Time;durP1;ratioP1;P1;durP2;ratioP2;P2;SDS_P1;SDS_P2;PMS_P1;PMS_P2;Temp;Humidity;BMP_temperature;BMP_pressure;BME280_temperature;BME280_humidity;BME280_pressure;Samples;Min_cycle;Max_cycle;Signal;HPM_P1;HPM_P2
2022/06/19 00:00:19;;;;;;;7.30;3.10;;;;;13.40;97919.60;;;;110475;1253;41212;-66
2022/06/19 00:03:05;;;;;;;8.80;2.90;;;;;13.40;97927.20;;;;110490;1253;41634;-66
2022/06/19 00:05:35;;;;;;;7.40;2.90;;;;;13.32;97929.20;;;;110365;1253;41145;-68
2022/06/19 00:08:05;;;;;;;5.40;2.40;;;;;13.30;97924.60;;;;110592;1253;41150;-65
2022/06/19 00:10:34;;;;;;;6.30;2.60;;;;;13.30;97926.00;;;;110529;1255;41296;-67
2022/06/19 00:13:04;;;;;;;7.90;2.80;;;;;13.30;97922.40;;;;110345;1254;41152;-64
2022/06/19 00:15:34;;;;;;;5.70;2.40;;;;;13.30;97919.80;;;;110462;1254;41368;-64
2022/06/19 00:18:04;;;;;;;4.70;2.40;;;;;13.30;97921.20;;;;110369;1253;41162;-65
2022/06/19 00:20:39;;;;;;;5.90;2.60;;;;;13.30;97924.80;;;;110357;1256;41373;-65
2022/06/19 00:23:08;;;;;;;5.80;2.50;;;;;13.30;97923.80;;;;110645;1253;41014;-66
2022/06/19 00:25:39;;;;;;;5.60;2.40;;;;;13.24;97921.00;;;;110678;1255;40989;-64
2022/06/19 00:28:08;;;;;;;5.80;2.40;;;;;13.20;97924.80;;;;110502;1253;41261;-65
2022/06/19 00:30:38;;;;;;;6.80;2.80;;;;;13.20;97922.00;;;;110472;1253;42470;-65
2022/06/19 00:33:08;;;;;;;6.10;2.60;;;;;13.20;97926.00;;;;110501;1253;41592;-66
2022/06/19 00:35:38;;;;;;;7.50;2.80;;;;;13.20;97924.60;;;;110435;1253;41303;-65
2022/06/19 00:38:08;;;;;;;6.80;2.80;;;;;13.20;97922.40;;;;110550;1253;41264;-65
2022/06/19 00:40:39;;;;;;;8.70;3.20;;;;;13.16;97924.20;;;;110377;1255;41156;-65
2022/06/19 00:43:09;;;;;;;7.40;3.00;;;;;13.10;97926.00;;;;110518;1253;41163;-64
2022/06/19 00:45:42;;;;;;;5.10;2.20;;;;;13.00;97930.00;;;;110530;1253;41264;-64
2022/06/19 00:48:14;;;;;;;6.30;2.60;;;;;13.00;97933.20;;;;110330;1255;41208;-65
2022/06/19 00:50:47;;;;;;;5.20;2.40;;;;;12.90;97935.00;;;;110475;1253;41388;-66
2022/06/19 00:53:25;;;;;;;7.30;2.50;;;;;12.86;97933.20;;;;110513;1253;42402;-65
2022/06/19 00:55:57;;;;;;;6.40;2.50;;;;;12.80;97934.00;;;;110492;1254;41160;-65
2022/06/19 00:58:29;;;;;;;;;;;;;12.80;97939.60;;;;110480;1254;41940;-65
2022/06/19 01:01:02;;;;;;;6.10;2.70;;;;;12.70;97936.80;;;;110515;1253;41184;-65
2022/06/19 01:03:36;;;;;;;5.30;2.40;;;;;12.70;97935.00;;;;110516;1254;42296;-66
2022/06/19 01:06:06;;;;;;;6.20;2.30;;;;;12.70;97932.00;;;;110504;1253;41721;-65
2022/06/19 01:08:37;;;;;;;5.10;2.30;;;;;12.60;97930.40;;;;110518;1253;41164;-65
2022/06/19 01:11:08;;;;;;;4.60;2.30;;;;;12.60;97931.40;;;;110524;1253;41475;-65
2022/06/19 01:13:38;;;;;;;5.00;2.30;;;;;12.50;97932.80;;;;110477;1254;41261;-66
2022/06/19 01:16:08;;;;;;;;;;;;;12.50;97931.20;;;;110437;1253;41747;-66
2022/06/19 01:18:39;;;;;;;5.00;2.10;;;;;12.40;97928.20;;;;110463;1254;41544;-66
2022/06/19 01:21:27;;;;;;;5.20;2.30;;;;;12.40;97929.00;;;;110432;1254;42092;-66
2022/06/19 01:24:09;;;;;;;5.40;2.40;;;;;12.40;97929.20;;;;110502;1253;41159;-66
2022/06/19 01:26:44;;;;;;;6.20;2.70;;;;;12.40;97926.00;;;;110545;1253;41295;-66
2022/06/19 01:29:15;;;;;;;4.80;2.50;;;;;12.40;97929.20;;;;110409;1256;41248;-65
2022/06/19 01:31:49;;;;;;;6.50;2.80;;;;;12.34;97929.60;;;;110461;1253;41736;-65
2022/06/19 01:34:32;;;;;;;6.60;2.60;;;;;12.30;97925.80;;;;110473;1254;41387;-65
2022/06/19 01:37:08;;;;;;;6.40;2.80;;;;;12.30;97923.00;;;;110509;1253;41199;-65
2022/06/19 01:39:45;;;;;;;6.40;2.80;;;;;12.30;97930.60;;;;110483;1253;41945;-65
2022/06/19 01:42:16;;;;;;;6.00;2.90;;;;;12.30;97929.00;;;;110482;1253;41271;-64
2022/06/19 01:44:47;;;;;;;7.50;3.20;;;;;12.30;97922.40;;;;110606;1253;41134;-65
2022/06/19 01:47:18;;;;;;;8.00;3.50;;;;;12.20;97926.20;;;;110593;1253;41226;-65
2022/06/19 01:49:49;;;;;;;;;;;;;12.10;97920.20;;;;110398;1254;41362;-65
2022/06/19 01:52:20;;;;;;;6.90;3.00;;;;;12.00;97922.00;;;;110579;1253;41158;-66
2022/06/19 01:55:04;;;;;;;8.40;3.70;;;;;12.00;97920.00;;;;110502;1253;41252;-65
2022/06/19 01:57:37;;;;;;;8.00;3.50;;;;;11.90;97927.00;;;;110437;1253;41140;-65
2022/06/19 02:00:10;;;;;;;12.90;3.60;;;;;11.90;97932.00;;;;110450;1254;41179;-64
2022/06/19 02:02:43;;;;;;;7.90;3.20;;;;;11.80;97933.80;;;;110474;1252;41647;-65
2022/06/19 02:05:13;;;;;;;5.40;2.60;;;;;11.80;97934.80;;;;110502;1252;41156;-65
2022/06/19 02:07:43;;;;;;;6.40;2.60;;;;;11.80;97936.80;;;;110556;1251;42480;-65
2022/06/19 02:10:13;;;;;;;8.90;3.10;;;;;11.80;97935.00;;;;110413;1253;41876;-64
2022/06/19 02:12:43;;;;;;;8.30;3.40;;;;;11.76;97938.20;;;;110510;1253;41283;-65
2022/06/19 02:15:13;;;;;;;7.30;3.10;;;;;11.70;97944.60;;;;110536;1253;41595;-65
2022/06/19 02:17:49;;;;;;;7.10;3.00;;;;;11.70;97943.60;;;;110397;1253;41276;-66
2022/06/19 02:20:20;;;;;;;6.10;2.60;;;;;11.70;97937.20;;;;110545;1250;41273;-64
2022/06/19 02:22:50;;;;;;;5.20;2.50;;;;;11.70;97939.60;;;;110653;1253;41141;-65
2022/06/19 02:25:20;;;;;;;5.40;2.40;;;;;11.70;97931.40;;;;110474;1256;41327;-65
2022/06/19 02:27:52;;;;;;;5.80;2.70;;;;;11.70;97932.60;;;;110494;1253;41666;-65
2022/06/19 02:30:22;;;;;;;6.60;2.40;;;;;11.70;97928.40;;;;110508;1253;42228;-66
2022/06/19 02:32:52;;;;;;;5.80;2.50;;;;;11.70;97931.80;;;;110517;1253;41264;-65
2022/06/19 02:35:25;;;;;;;6.40;2.80;;;;;11.70;97929.60;;;;110482;1253;41158;-64
2022/06/19 02:37:57;;;;;;;5.70;2.60;;;;;11.70;97931.80;;;;110560;1253;42480;-65
2022/06/19 02:40:59;;;;;;;7.30;3.10;;;;;11.70;97932.40;;;;110551;1253;41630;-66
2022/06/19 02:43:32;;;;;;;7.20;2.80;;;;;11.70;97933.00;;;;110477;1255;40927;-66
2022/06/19 02:46:06;;;;;;;6.80;2.60;;;;;11.72;97935.40;;;;110519;1253;41331;-64
2022/06/19 02:48:37;;;;;;;6.80;2.80;;;;;11.72;97938.20;;;;110525;1253;41121;-65
2022/06/19 02:51:07;;;;;;;6.90;2.80;;;;;11.72;97938.20;;;;110581;1253;41207;-66
2022/06/19 02:53:38;;;;;;;8.30;2.80;;;;;11.76;97938.80;;;;110538;1253;41592;-66
2022/06/19 02:56:09;;;;;;;4.70;2.10;;;;;11.78;97942.00;;;;110532;1253;42204;-65
2022/06/19 02:58:39;;;;;;;6.70;2.90;;;;;11.80;97944.40;;;;110654;1252;41891;-65
2022/06/19 03:01:09;;;;;;;5.40;2.40;;;;;11.80;97948.00;;;;110618;1253;41272;-64
2022/06/19 03:03:39;;;;;;;11.80;3.10;;;;;11.80;97955.20;;;;110588;1253;41199;-64
2022/06/19 03:06:09;;;;;;;7.00;3.10;;;;;11.80;97953.60;;;;110549;1253;41843;-63
2022/06/19 03:08:40;;;;;;;6.90;3.00;;;;;11.80;97951.60;;;;110566;1253;41143;-66
2022/06/19 03:11:10;;;;;;;5.80;2.60;;;;;11.80;97955.40;;;;110526;1254;43193;-65
2022/06/19 03:13:41;;;;;;;5.90;2.80;;;;;11.88;97956.40;;;;110539;1254;41728;-64
2022/06/19 03:16:12;;;;;;;6.40;2.60;;;;;11.90;97959.20;;;;110527;1253;41258;-65
2022/06/19 03:18:42;;;;;;;5.40;2.50;;;;;11.90;97958.20;;;;110353;1254;41157;-65
2022/06/19 03:21:12;;;;;;;5.70;2.50;;;;;11.90;97957.80;;;;110554;1256;41263;-66
2022/06/19 03:23:43;;;;;;;5.90;2.40;;;;;11.98;97961.80;;;;110524;1253;41160;-68
2022/06/19 03:26:13;;;;;;;7.40;3.20;;;;;12.00;97954.40;;;;110519;1254;41258;-66
2022/06/19 03:28:43;;;;;;;8.10;3.60;;;;;11.98;97957.60;;;;110569;1253;41324;-64
2022/06/19 03:31:22;;;;;;;7.70;3.40;;;;;11.90;97958.40;;;;110403;1256;42369;-65
2022/06/19 03:33:52;;;;;;;8.10;3.50;;;;;11.92;97951.60;;;;110537;1253;42386;-65
2022/06/19 03:36:24;;;;;;;6.10;2.50;;;;;11.96;97954.20;;;;110554;1253;41157;-65
2022/06/19 03:38:54;;;;;;;5.30;2.40;;;;;12.00;97947.80;;;;110683;1253;41267;-65
2022/06/19 03:41:25;;;;;;;6.10;2.40;;;;;12.10;97950.00;;;;110550;1253;41482;-64
2022/06/19 03:43:55;;;;;;;5.70;2.50;;;;;12.16;97950.40;;;;110519;1253;42358;-65
2022/06/19 03:46:25;;;;;;;5.40;2.50;;;;;12.26;97949.40;;;;110535;1253;41134;-64
2022/06/19 03:48:55;;;;;;;4.70;2.30;;;;;12.32;97952.00;;;;110438;1253;41357;-64
2022/06/19 03:51:26;;;;;;;5.40;2.40;;;;;12.40;97950.20;;;;110463;1254;41269;-64
2022/06/19 03:53:56;;;;;;;6.00;2.50;;;;;12.50;97953.80;;;;110337;1255;41197;-65
2022/06/19 03:56:29;;;;;;;4.90;2.40;;;;;12.60;97953.00;;;;110579;1253;41513;-65
2022/06/19 03:58:59;;;;;;;5.10;2.40;;;;;12.70;97955.00;;;;110513;1254;42153;-66
2022/06/19 04:01:35;;;;;;;5.30;2.40;;;;;12.80;97956.80;;;;110522;1253;41427;-66
2022/06/19 04:04:04;;;;;;;7.30;3.00;;;;;12.92;97960.40;;;;110470;1254;41388;-65
2022/06/19 04:06:37;;;;;;;7.90;3.40;;;;;13.10;97952.60;;;;110464;1253;41268;-66
2022/06/19 04:09:10;;;;;;;7.20;3.40;;;;;13.20;97954.60;;;;110579;1253;41471;-65
2022/06/19 04:11:40;;;;;;;8.30;3.20;;;;;13.30;97957.40;;;;110559;1253;41272;-66
2022/06/19 04:14:11;;;;;;;8.20;3.60;;;;;13.40;97956.00;;;;110550;1253;41164;-64
2022/06/19 04:16:42;;;;;;;9.00;3.40;;;;;13.56;97954.60;;;;110442;1253;41147;-65
2022/06/19 04:19:12;;;;;;;8.80;3.60;;;;;13.70;97945.20;;;;110439;1254;41731;-65
2022/06/19 04:21:44;;;;;;;7.30;3.60;;;;;13.92;97948.00;;;;110524;1253;41968;-65
2022/06/19 04:24:15;;;;;;;6.90;3.10;;;;;14.54;97940.60;;;;110536;1253;42574;-64
2022/06/19 04:26:45;;;;;;;6.70;3.10;;;;;16.20;97923.00;;;;110548;1253;41156;-65
2022/06/19 04:29:16;;;;;;;7.70;3.20;;;;;17.72;97918.80;;;;110561;1253;41604;-65
2022/06/19 04:31:46;;;;;;;8.10;3.20;;;;;18.94;97914.80;;;;110519;1253;42793;-66
2022/06/19 04:34:16;;;;;;;6.90;3.20;;;;;19.50;97923.00;;;;110398;1254;41714;-65
2022/06/19 04:36:47;;;;;;;9.60;3.50;;;;;19.50;97929.00;;;;110464;1253;41160;-66
2022/06/19 04:39:17;;;;;;;8.60;3.20;;;;;19.34;97935.20;;;;110472;1253;41635;-66
2022/06/19 04:41:47;;;;;;;6.30;3.00;;;;;19.30;97928.40;;;;110684;1253;41958;-65
2022/06/19 04:44:18;;;;;;;8.80;2.70;;;;;19.40;97933.80;;;;110520;1253;41267;-65
2022/06/19 04:46:48;;;;;;;6.80;2.90;;;;;19.62;97918.80;;;;110536;1253;41141;-65
2022/06/19 04:49:18;;;;;;;6.00;2.70;;;;;20.68;97911.40;;;;110538;1253;41773;-64
2022/06/19 04:51:48;;;;;;;9.30;2.60;;;;;22.04;97906.00;;;;110663;1253;41140;-64
2022/06/19 04:54:18;;;;;;;5.60;2.20;;;;;23.14;97904.40;;;;110362;1256;41309;-67
2022/06/19 04:56:49;;;;;;;4.80;2.30;;;;;24.08;97896.40;;;;110572;1253;41716;-66
2022/06/19 04:59:18;;;;;;;6.00;2.60;;;;;24.90;97903.00;;;;110496;1255;41133;-65
2022/06/19 05:01:48;;;;;;;7.40;2.70;;;;;25.30;97904.00;;;;110506;1255;41559;-66
2022/06/19 05:04:17;;;;;;;9.40;2.90;;;;;25.64;97892.60;;;;110387;1254;41166;-65
2022/06/19 05:06:47;;;;;;;6.00;2.70;;;;;25.70;97896.60;;;;110552;1253;41717;-65
2022/06/19 05:09:18;;;;;;;5.50;2.20;;;;;25.78;97903.60;;;;110541;1253;41157;-65
2022/06/19 05:11:48;;;;;;;3.70;1.90;;;;;25.86;97892.40;;;;110372;1254;41928;-65
2022/06/19 05:14:18;;;;;;;5.60;2.40;;;;;25.98;97901.60;;;;110494;1253;42391;-66
2022/06/19 05:16:51;;;;;;;3.50;1.90;;;;;25.30;97922.00;;;;110351;1254;41777;-64
2022/06/19 05:19:20;;;;;;;4.20;2.00;;;;;24.42;97926.60;;;;110668;1253;42857;-65
2022/06/19 05:21:50;;;;;;;5.20;2.10;;;;;23.94;97924.40;;;;110487;1253;41262;-64
2022/06/19 05:24:20;;;;;;;5.10;2.20;;;;;23.86;97919.40;;;;110372;1255;41511;-65
2022/06/19 05:26:50;;;;;;;4.80;2.40;;;;;23.84;97938.00;;;;110526;1253;42368;-66
2022/06/19 05:29:20;;;;;;;6.40;2.40;;;;;23.20;97943.40;;;;110600;1253;41259;-65
2022/06/19 05:31:50;;;;;;;6.80;2.70;;;;;22.76;97944.20;;;;110283;1254;41489;-66
2022/06/19 05:34:20;;;;;;;5.90;2.60;;;;;22.04;97947.40;;;;110425;1253;41147;-64
2022/06/19 05:36:49;;;;;;;6.50;2.30;;;;;21.60;97950.80;;;;110545;1253;41008;-64
2022/06/19 05:39:19;;;;;;;5.40;2.20;;;;;21.50;97952.20;;;;110348;1254;41592;-66
2022/06/19 05:41:48;;;;;;;4.50;2.20;;;;;21.50;97953.00;;;;110587;1253;41270;-64
2022/06/19 05:44:18;;;;;;;7.10;2.30;;;;;21.70;97959.20;;;;110420;1253;41628;-65
2022/06/19 05:46:48;;;;;;;5.40;2.30;;;;;21.80;97959.00;;;;110578;1253;42098;-65
2022/06/19 05:49:18;;;;;;;5.10;2.30;;;;;21.92;97955.00;;;;110517;1253;41390;-65
2022/06/19 05:51:47;;;;;;;7.50;2.40;;;;;22.00;97952.40;;;;110516;1253;41374;-65
2022/06/19 05:54:16;;;;;;;5.70;2.40;;;;;21.90;97950.40;;;;110475;1253;41172;-65
2022/06/19 05:56:46;;;;;;;5.30;2.40;;;;;21.90;97943.80;;;;110593;1253;41196;-65
2022/06/19 05:59:15;;;;;;;5.10;2.40;;;;;22.20;97929.80;;;;110624;1253;41150;-66
2022/06/19 06:01:45;;;;;;;5.20;2.20;;;;;22.44;97916.40;;;;110450;1256;41163;-66
2022/06/19 06:04:14;;;;;;;8.60;2.90;;;;;23.10;97908.80;;;;110493;1255;40740;-65
2022/06/19 06:06:44;;;;;;;4.90;2.50;;;;;23.70;97902.60;;;;110559;1255;42533;-65
2022/06/19 06:09:14;;;;;;;6.80;2.50;;;;;24.22;97905.00;;;;110389;1254;41598;-65
2022/06/19 06:11:43;;;;;;;5.20;2.40;;;;;24.70;97905.40;;;;110532;1254;41437;-63
2022/06/19 06:14:12;;;;;;;6.20;2.50;;;;;25.10;97907.00;;;;110505;1254;41999;-65
2022/06/19 06:16:41;;;;;;;5.60;2.40;;;;;25.32;97911.00;;;;110407;1254;41566;-65
2022/06/19 06:19:10;;;;;;;15.10;2.20;;;;;25.60;97911.40;;;;110420;1255;41173;-65
2022/06/19 06:21:39;;;;;;;4.60;2.10;;;;;26.18;97920.00;;;;110559;1253;42382;-65
2022/06/19 06:24:13;;;;;;;5.10;2.40;;;;;26.70;97918.60;;;;110514;1254;41230;-66
2022/06/19 06:26:42;;;;;;;6.70;2.10;;;;;26.90;97914.60;;;;110515;1254;41144;-65
2022/06/19 06:29:11;;;;;;;5.00;2.10;;;;;27.00;97913.80;;;;110523;1256;41149;-66
2022/06/19 06:31:40;;;;;;;5.60;2.40;;;;;27.54;97921.40;;;;110522;1254;41147;-66
2022/06/19 06:34:10;;;;;;;4.80;2.20;;;;;28.14;97917.20;;;;110592;1254;41150;-66
2022/06/19 06:36:39;;;;;;;4.30;2.00;;;;;28.22;97919.60;;;;110542;1253;41268;-66
2022/06/19 06:39:08;;;;;;;3.70;1.90;;;;;28.02;97920.60;;;;110535;1254;42390;-64
2022/06/19 06:41:39;;;;;;;4.20;1.90;;;;;28.44;97920.20;;;;110434;1256;41259;-66
2022/06/19 06:44:14;;;;;;;4.80;2.00;;;;;28.78;97915.20;;;;110512;1253;41160;-66
2022/06/19 06:46:43;;;;;;;5.20;2.20;;;;;29.56;97914.00;;;;110462;1254;41665;-67
2022/06/19 06:49:13;;;;;;;5.10;2.00;;;;;29.72;97913.80;;;;110545;1254;41141;-68
2022/06/19 06:51:42;;;;;;;4.50;2.10;;;;;29.50;97914.80;;;;110491;1254;41799;-66
2022/06/19 06:54:11;;;;;;;5.70;2.10;;;;;29.58;97911.20;;;;110486;1255;41721;-66
2022/06/19 06:56:40;;;;;;;4.40;1.80;;;;;30.00;97910.20;;;;110507;1255;41265;-66
2022/06/19 06:59:10;;;;;;;4.40;2.10;;;;;30.82;97910.40;;;;110466;1253;42114;-69
2022/06/19 07:01:39;;;;;;;4.80;2.10;;;;;30.72;97910.40;;;;110546;1254;42372;-68
2022/06/19 07:04:09;;;;;;;4.70;2.10;;;;;30.86;97910.80;;;;110337;1255;41163;-66
2022/06/19 07:06:38;;;;;;;6.20;2.20;;;;;30.24;97909.20;;;;110470;1255;42388;-67
2022/06/19 07:09:07;;;;;;;4.80;2.20;;;;;29.88;97909.60;;;;110532;1254;41279;-66
2022/06/19 07:11:40;;;;;;;5.70;2.00;;;;;29.56;97912.40;;;;110389;1254;41150;-66
2022/06/19 07:14:10;;;;;;;7.30;2.50;;;;;28.84;97907.40;;;;110453;1256;41350;-66
2022/06/19 07:16:40;;;;;;;4.60;2.00;;;;;27.34;97914.60;;;;110482;1253;41131;-64
2022/06/19 07:19:11;;;;;;;4.60;2.00;;;;;26.72;97914.60;;;;110518;1254;41196;-66
2022/06/19 07:21:40;;;;;;;6.50;2.00;;;;;26.14;97915.80;;;;110466;1254;41891;-66
2022/06/19 07:24:09;;;;;;;3.60;1.90;;;;;25.50;97921.80;;;;110512;1255;41407;-66
2022/06/19 07:26:39;;;;;;;6.80;2.40;;;;;25.50;97923.40;;;;110552;1254;42002;-66
2022/06/19 07:29:08;;;;;;;7.70;2.00;;;;;25.20;97920.80;;;;110298;1254;41162;-67
2022/06/19 07:31:38;;;;;;;5.00;2.10;;;;;25.34;97917.00;;;;110571;1254;41156;-66
2022/06/19 07:34:07;;;;;;;6.10;2.50;;;;;25.38;97914.20;;;;110371;1254;41157;-67
2022/06/19 07:36:40;;;;;;;5.10;2.20;;;;;24.80;97915.20;;;;110472;1254;41153;-66
2022/06/19 07:39:10;;;;;;;4.60;2.10;;;;;24.70;97914.80;;;;110510;1254;41161;-66
2022/06/19 07:41:39;;;;;;;5.10;2.10;;;;;24.80;97915.80;;;;110507;1255;41156;-66
2022/06/19 07:44:08;;;;;;;3.70;1.80;;;;;25.00;97912.20;;;;110519;1254;41938;-67
2022/06/19 07:50:09;;;;;;;4.50;2.00;;;;;25.18;97911.00;;;;110540;1254;42511;-65
2022/06/19 07:52:15;;;;;;;5.60;2.30;;;;;25.60;97897.00;;;;110505;1254;41756;-67
2022/06/19 07:54:44;;;;;;;4.40;2.10;;;;;25.44;97896.80;;;;110550;1254;41295;-68
2022/06/19 07:57:14;;;;;;;4.00;2.00;;;;;25.10;97889.40;;;;110561;1255;41177;-67
2022/06/19 07:59:43;;;;;;;4.60;2.00;;;;;25.08;97887.00;;;;110511;1254;41956;-67
2022/06/19 08:02:12;;;;;;;4.10;1.90;;;;;25.00;97890.20;;;;110534;1256;41753;-66
2022/06/19 08:04:41;;;;;;;4.60;1.80;;;;;25.20;97882.00;;;;110381;1254;41145;-66
2022/06/19 08:07:15;;;;;;;5.40;2.20;;;;;25.42;97878.00;;;;110507;1254;41297;-67
2022/06/19 08:09:46;;;;;;;4.50;2.00;;;;;25.70;97875.60;;;;110514;1254;41638;-67
2022/06/19 08:12:15;;;;;;;6.90;2.20;;;;;25.90;97874.20;;;;110514;1254;41168;-67
2022/06/19 08:14:44;;;;;;;6.70;2.30;;;;;25.90;97872.20;;;;110532;1254;41410;-66
2022/06/19 08:17:13;;;;;;;5.20;2.10;;;;;25.70;97867.00;;;;110496;1254;42372;-67
2022/06/19 08:19:43;;;;;;;7.50;2.10;;;;;25.80;97864.00;;;;110539;1254;41195;-66
2022/06/19 08:22:12;;;;;;;5.20;2.10;;;;;25.90;97861.00;;;;110574;1254;41528;-68
2022/06/19 08:24:41;;;;;;;5.40;1.90;;;;;25.80;97857.00;;;;110420;1254;41183;-68
2022/06/19 08:27:10;;;;;;;5.70;2.50;;;;;25.88;97857.00;;;;110540;1254;42458;-68
2022/06/19 08:29:39;;;;;;;5.10;2.10;;;;;26.00;97848.60;;;;110552;1253;41379;-67
2022/06/19 08:32:09;;;;;;;3.70;1.90;;;;;25.80;97847.20;;;;110551;1254;42641;-67
2022/06/19 08:34:38;;;;;;;5.80;2.40;;;;;25.68;97842.20;;;;110544;1254;42372;-67
2022/06/19 08:37:08;;;;;;;5.10;2.10;;;;;25.88;97838.20;;;;110519;1255;41263;-67
2022/06/19 08:39:37;;;;;;;6.20;2.50;;;;;25.80;97833.80;;;;110472;1254;42421;-66
2022/06/19 08:42:45;;;;;;;6.00;2.40;;;;;25.44;97833.40;;;;110465;1256;41150;-67
2022/06/19 08:45:21;;;;;;;6.80;1.90;;;;;25.44;97831.40;;;;110551;1254;42380;-68
2022/06/19 08:47:57;;;;;;;5.50;2.10;;;;;25.58;97833.20;;;;110556;1254;41265;-69
2022/06/19 08:50:51;;;;;;;5.50;2.10;;;;;25.80;97835.80;;;;110539;1254;41597;-69
2022/06/19 08:53:27;;;;;;;5.50;2.00;;;;;25.80;97833.80;;;;110504;1254;42470;-69
2022/06/19 08:55:57;;;;;;;7.30;2.50;;;;;25.88;97827.60;;;;110655;1254;41251;-69
2022/06/19 08:58:30;;;;;;;5.40;2.20;;;;;26.40;97824.80;;;;110614;1254;41172;-68
2022/06/19 09:01:24;;;;;;;7.10;2.10;;;;;26.40;97824.80;;;;110536;1254;41147;-69
2022/06/19 09:07:11;;;;;;;3.90;1.70;;;;;26.82;97816.60;;;;110618;1254;41155;-67
2022/06/19 09:09:56;;;;;;;6.00;2.20;;;;;27.02;97813.80;;;;110575;1254;41537;-69
2022/06/19 09:12:32;;;;;;;6.20;2.40;;;;;27.50;97810.60;;;;110668;1254;41157;-69
2022/06/19 09:15:19;;;;;;;9.60;3.30;;;;;27.80;97813.60;;;;110580;1254;41163;-68
2022/06/19 09:17:47;;;;;;;6.50;2.70;;;;;27.70;97810.60;;;;110663;1255;41163;-68
2022/06/19 09:20:44;;;;;;;8.60;3.90;;;;;27.64;97820.20;;;;110646;1254;41143;-66
2022/06/19 09:23:40;;;;;;;9.50;3.60;;;;;27.90;97819.20;;;;110400;1254;42381;-68
2022/06/19 09:26:20;;;;;;;10.20;3.90;;;;;28.28;97813.40;;;;110418;1254;41921;-67
2022/06/19 09:28:50;;;;;;;;;;;;;28.78;97804.00;;;;110531;1253;41523;-68
2022/06/19 09:31:26;;;;;;;8.60;3.40;;;;;28.98;97799.60;;;;110585;1254;41630;-67
2022/06/19 09:34:06;;;;;;;8.40;2.70;;;;;29.48;97795.80;;;;110542;1253;41139;-65
2022/06/19 09:36:40;;;;;;;5.50;1.80;;;;;30.06;97796.00;;;;110512;1254;41619;-67
2022/06/19 09:39:46;;;;;;;3.50;1.60;;;;;30.66;97797.20;;;;110536;1253;41151;-68
2022/06/19 09:42:31;;;;;;;3.60;1.70;;;;;31.54;97784.60;;;;110625;1254;41153;-67
2022/06/19 09:45:22;;;;;;;5.20;1.90;;;;;31.32;97787.00;;;;110577;1254;42238;-67
2022/06/19 09:48:25;;;;;;;2.90;1.60;;;;;31.00;97786.00;;;;110545;1254;41162;-66
2022/06/19 09:51:01;;;;;;;3.60;1.50;;;;;30.98;97788.80;;;;110694;1254;41863;-68
2022/06/19 09:53:50;;;;;;;3.90;1.60;;;;;31.68;97780.80;;;;110588;1256;41137;-65
2022/06/19 09:56:33;;;;;;;2.60;1.40;;;;;32.36;97777.60;;;;110684;1254;41304;-69
2022/06/19 09:59:24;;;;;;;3.40;1.60;;;;;33.00;97773.40;;;;110581;1254;41166;-66
2022/06/19 10:01:58;;;;;;;2.70;1.50;;;;;33.10;97780.20;;;;110515;1254;41135;-66
2022/06/19 10:04:40;;;;;;;2.80;1.40;;;;;33.74;97776.80;;;;110529;1255;42193;-69
2022/06/19 10:07:54;;;;;;;3.90;1.40;;;;;34.50;97776.40;;;;110410;1254;41284;-67
2022/06/19 10:11:06;;;;;;;3.00;1.50;;;;;35.24;97770.40;;;;110002;1261;41372;-68
2022/06/19 10:14:10;;;;;;;2.50;1.40;;;;;35.36;97761.60;;;;109313;1266;41202;-68
2022/06/19 10:17:52;;;;;;;2.60;1.50;;;;;34.80;97766.60;;;;109353;1267;41212;-70
2022/06/19 10:21:10;;;;;;;2.80;1.40;;;;;34.90;97754.80;;;;108587;1273;41547;-69
2022/06/19 10:24:08;;;;;;;2.40;1.50;;;;;34.80;97751.00;;;;108643;1273;40980;-66
2022/06/19 10:27:26;;;;;;;3.50;1.70;;;;;34.66;97759.80;;;;108579;1273;42803;-68
2022/06/19 10:30:14;;;;;;;4.50;1.50;;;;;34.20;97765.20;;;;108681;1273;41187;-67
2022/06/19 10:33:29;;;;;;;3.50;1.60;;;;;33.80;97760.20;;;;108350;1276;41596;-67
2022/06/19 10:36:20;;;;;;;3.00;1.50;;;;;33.70;97765.80;;;;108561;1275;42127;-69
2022/06/19 10:39:13;;;;;;;2.60;1.50;;;;;33.50;97767.80;;;;108854;1273;41189;-68
2022/06/19 10:42:07;;;;;;;3.50;1.40;;;;;33.30;97757.60;;;;108712;1273;41176;-66
2022/06/19 10:45:29;;;;;;;2.70;1.30;;;;;32.96;97750.40;;;;108875;1267;41189;-67
2022/06/19 10:48:32;;;;;;;3.90;1.80;;;;;32.80;97743.60;;;;108951;1269;41964;-69
2022/06/19 10:51:28;;;;;;;4.40;1.70;;;;;33.18;97741.40;;;;109006;1268;41301;-69
2022/06/19 10:54:14;;;;;;;3.30;1.40;;;;;33.20;97738.80;;;;109317;1267;41570;-68
2022/06/19 10:57:27;;;;;;;3.10;1.60;;;;;33.30;97735.00;;;;109574;1263;40980;-69
2022/06/19 11:00:12;;;;;;;3.50;1.50;;;;;33.70;97738.00;;;;109808;1262;41208;-68
2022/06/19 11:06:14;;;;;;;3.20;1.40;;;;;35.18;97726.80;;;;109953;1260;41286;-69
2022/06/19 11:09:05;;;;;;;3.90;1.50;;;;;35.98;97719.20;;;;109530;1263;41511;-68
2022/06/19 11:11:47;;;;;;;4.30;1.50;;;;;37.18;97711.80;;;;109704;1263;40959;-67
2022/06/19 11:15:00;;;;;;;2.10;1.30;;;;;37.90;97708.60;;;;109680;1262;41620;-68
2022/06/19 11:17:44;;;;;;;2.10;1.30;;;;;38.38;97712.40;;;;109158;1267;42011;-69
2022/06/19 11:20:31;;;;;;;2.40;1.20;;;;;39.04;97710.80;;;;110047;1260;41281;-69
2022/06/19 11:23:34;;;;;;;3.70;1.60;;;;;39.72;97710.00;;;;109886;1260;41173;-67
2022/06/19 11:26:21;;;;;;;1.70;1.10;;;;;40.08;97712.40;;;;110200;1260;41158;-68
2022/06/19 11:29:18;;;;;;;2.70;1.40;;;;;39.70;97711.00;;;;109879;1261;40901;-69
2022/06/19 11:32:16;;;;;;;2.80;1.40;;;;;39.76;97708.00;;;;110231;1260;41464;-68
2022/06/19 11:35:07;;;;;;;1.70;1.20;;;;;39.54;97710.80;;;;109831;1262;42430;-69
2022/06/19 11:37:55;;;;;;;1.90;1.20;;;;;39.04;97700.80;;;;109950;1261;41625;-68
2022/06/19 11:40:33;;;;;;;4.50;1.50;;;;;39.20;97699.60;;;;110075;1260;41806;-69
2022/06/19 11:43:04;;;;;;;2.70;1.40;;;;;39.08;97697.00;;;;110202;1260;41263;-67
2022/06/19 11:45:35;;;;;;;3.00;1.40;;;;;38.66;97701.60;;;;110249;1260;41086;-69
2022/06/19 11:48:07;;;;;;;3.90;1.40;;;;;37.98;97699.40;;;;110269;1257;42622;-69
2022/06/19 11:50:40;;;;;;;3.40;1.30;;;;;39.22;97695.80;;;;110333;1257;41843;-70
2022/06/19 11:53:14;;;;;;;2.40;1.20;;;;;38.70;97699.60;;;;110364;1255;41191;-68
2022/06/19 11:55:49;;;;;;;2.50;1.30;;;;;38.60;97704.40;;;;110551;1254;41172;-70
2022/06/19 11:58:29;;;;;;;1.60;1.10;;;;;39.04;97692.20;;;;110390;1256;41265;-69
2022/06/19 12:01:11;;;;;;;2.00;1.30;;;;;39.66;97691.40;;;;110483;1254;42488;-67
2022/06/19 12:03:49;;;;;;;3.10;1.10;;;;;38.92;97691.00;;;;110572;1254;41133;-68
2022/06/19 12:06:22;;;;;;;2.60;1.20;;;;;38.30;97696.40;;;;110504;1256;41150;-68
2022/06/19 12:08:56;;;;;;;2.50;1.20;;;;;37.58;97690.40;;;;110553;1254;41142;-68
2022/06/19 12:11:41;;;;;;;2.40;1.30;;;;;36.66;97697.00;;;;110572;1254;40905;-69
2022/06/19 12:14:11;;;;;;;2.40;1.20;;;;;35.90;97689.80;;;;110425;1255;41270;-68
2022/06/19 12:16:40;;;;;;;3.30;1.50;;;;;35.18;97683.40;;;;110422;1254;41195;-67
2022/06/19 12:19:14;;;;;;;2.70;1.40;;;;;34.46;97679.20;;;;110364;1254;41182;-68
2022/06/19 12:22:09;;;;;;;3.30;1.50;;;;;33.36;97676.00;;;;110503;1254;41153;-68
2022/06/19 12:24:55;;;;;;;2.30;1.30;;;;;32.74;97686.60;;;;110291;1256;41622;-68
2022/06/19 12:27:28;;;;;;;1.50;1.20;;;;;32.50;97685.20;;;;110399;1254;41156;-67
2022/06/19 12:30:00;;;;;;;6.50;1.50;;;;;32.44;97682.80;;;;110478;1254;41406;-67
2022/06/19 12:32:34;;;;;;;3.60;1.40;;;;;32.40;97679.80;;;;110492;1254;41923;-68
2022/06/19 12:35:08;;;;;;;2.00;1.20;;;;;32.30;97677.80;;;;110355;1257;42400;-68
2022/06/19 12:37:37;;;;;;;4.60;1.40;;;;;32.30;97679.40;;;;110549;1257;41273;-69
2022/06/19 12:40:13;;;;;;;5.00;1.50;;;;;32.38;97677.60;;;;110462;1254;41160;-69
2022/06/19 12:42:54;;;;;;;2.40;1.50;;;;;32.40;97673.20;;;;110600;1253;41272;-69
2022/06/19 12:45:36;;;;;;;2.50;1.50;;;;;32.30;97666.00;;;;110687;1253;41152;-67
2022/06/19 12:48:16;;;;;;;2.50;1.40;;;;;32.20;97667.20;;;;110607;1254;41240;-67
2022/06/19 12:50:51;;;;;;;4.10;1.50;;;;;32.20;97667.80;;;;110490;1254;41163;-67
2022/06/19 12:53:40;;;;;;;8.70;1.70;;;;;31.86;97656.80;;;;110532;1254;41287;-68
2022/06/19 12:56:23;;;;;;;3.90;1.70;;;;;31.94;97659.20;;;;110490;1254;41282;-68
2022/06/19 12:59:16;;;;;;;3.60;1.60;;;;;31.90;97662.20;;;;110626;1255;41592;-68